createdAt,value
2018-11-12T00:00:06.845Z,58.70
2018-11-12T00:02:34.688Z,58.50
2018-11-12T00:05:03.470Z,58.50
2018-11-12T00:07:31.299Z,58.40
2018-11-12T00:10:00.046Z,58.60
2018-11-12T00:12:28.746Z,58.60
2018-11-12T00:14:56.765Z,58.60
2018-11-12T00:17:25.598Z,59.30
2018-11-12T00:19:53.460Z,58.80
2018-11-12T00:22:21.289Z,59.00
2018-11-12T00:24:49.122Z,58.90
2018-11-12T00:27:16.933Z,58.80
2018-11-12T00:29:45.662Z,58.80
2018-11-12T00:32:14.354Z,58.80
2018-11-12T00:34:42.187Z,58.90
2018-11-12T00:37:10.042Z,58.90
2018-11-12T00:39:37.889Z,59.00
2018-11-12T00:42:05.931Z,58.90
2018-11-12T00:44:33.764Z,59.00
2018-11-12T00:47:03.074Z,58.80
2018-11-12T00:49:30.938Z,58.90
2018-11-12T00:51:58.761Z,58.90
2018-11-12T00:54:26.586Z,58.80
2018-11-12T00:56:54.408Z,59.50
2018-11-12T00:59:22.239Z,58.80
2018-11-12T01:01:50.104Z,58.80
2018-11-12T01:04:18.027Z,58.80
2018-11-12T01:06:45.793Z,59.80
2018-11-12T01:09:13.860Z,58.70
2018-11-12T01:11:41.781Z,58.70
2018-11-12T01:14:09.667Z,58.70
2018-11-12T01:16:37.509Z,58.80
2018-11-12T01:19:05.466Z,58.80
2018-11-12T01:21:33.330Z,58.80
2018-11-12T01:24:02.157Z,58.90
2018-11-12T01:26:29.987Z,58.80
2018-11-12T01:28:57.802Z,58.90
2018-11-12T01:31:25.638Z,58.80
2018-11-12T01:33:53.449Z,58.90
2018-11-12T01:36:21.263Z,58.90
2018-11-12T01:38:49.085Z,58.80
2018-11-12T01:41:16.904Z,58.80
2018-11-12T01:43:45.736Z,58.90
2018-11-12T01:46:14.408Z,58.80
2018-11-12T01:48:42.247Z,58.80
2018-11-12T01:51:11.163Z,59.10
2018-11-12T01:53:38.990Z,58.80
2018-11-12T01:56:07.113Z,58.80
2018-11-12T01:58:34.941Z,59.00
2018-11-12T02:01:03.797Z,58.90
2018-11-12T02:03:32.496Z,58.90
2018-11-12T02:06:00.311Z,59.20
2018-11-12T02:08:28.148Z,59.30
2018-11-12T02:10:55.957Z,59.20
2018-11-12T02:13:23.967Z,59.00
2018-11-12T02:15:51.808Z,58.90
2018-11-12T02:18:19.622Z,59.00
2018-11-12T02:20:47.447Z,59.10
2018-11-12T02:23:16.289Z,59.20
2018-11-12T02:25:45.599Z,59.10
2018-11-12T02:28:15.093Z,58.90
2018-11-12T02:30:45.783Z,58.90
2018-11-12T02:33:15.120Z,59.00
2018-11-12T02:35:43.794Z,59.20
2018-11-12T02:38:12.559Z,58.90
2018-11-12T02:40:41.276Z,58.70
2018-11-12T02:43:09.979Z,58.80
2018-11-12T02:45:37.808Z,58.90
2018-11-12T02:48:06.650Z,59.00
2018-11-12T02:50:35.371Z,59.00
2018-11-12T02:53:03.192Z,58.80
2018-11-12T02:55:31.023Z,58.90
2018-11-12T02:57:58.867Z,59.00
2018-11-12T03:00:26.697Z,58.90
2018-11-12T03:02:54.515Z,58.90
2018-11-12T03:05:22.371Z,58.90
2018-11-12T03:07:50.195Z,59.10
2018-11-12T03:10:23.215Z,59.00
2018-11-12T03:12:52.067Z,58.90
2018-11-12T03:15:21.554Z,59.20
2018-11-12T03:17:50.136Z,59.10
2018-11-12T03:20:23.205Z,59.00
2018-11-12T03:22:51.924Z,59.00
2018-11-12T03:25:21.529Z,58.90
2018-11-12T03:27:50.534Z,58.80
2018-11-12T03:30:19.584Z,59.00
2018-11-12T03:32:49.457Z,58.60
2018-11-12T03:35:18.172Z,59.00
2018-11-12T03:37:47.114Z,59.00
2018-11-12T03:40:18.659Z,58.90
2018-11-12T03:42:48.500Z,58.90
2018-11-12T03:45:21.342Z,59.00
2018-11-12T03:47:49.197Z,59.00
2018-11-12T03:50:18.280Z,58.90
2018-11-12T03:52:47.044Z,58.90
2018-11-12T03:55:16.726Z,58.70
2018-11-12T03:57:45.440Z,58.60
2018-11-12T04:00:14.744Z,58.70
2018-11-12T04:02:43.756Z,58.60
2018-11-12T04:05:12.604Z,58.80
2018-11-12T04:07:41.757Z,58.70
2018-11-12T04:10:14.261Z,58.90
2018-11-12T04:12:43.404Z,59.20
2018-11-12T04:15:14.334Z,59.00
2018-11-12T04:17:42.172Z,58.70
2018-11-12T04:20:12.809Z,58.80
2018-11-12T04:22:42.299Z,58.70
2018-11-12T04:25:11.719Z,58.80
2018-11-12T04:27:40.462Z,58.80
2018-11-12T04:30:10.943Z,58.90
2018-11-12T04:32:40.002Z,58.80
2018-11-12T04:35:09.387Z,58.70
2018-11-12T04:37:38.141Z,58.90
2018-11-12T04:40:06.855Z,58.80
2018-11-12T04:42:35.752Z,58.90
2018-11-12T04:45:04.546Z,58.80
2018-11-12T04:47:33.391Z,58.80
2018-11-12T04:50:01.241Z,58.90
2018-11-12T04:52:30.103Z,58.70
2018-11-12T04:54:59.023Z,58.60
2018-11-12T04:57:26.866Z,58.60
2018-11-12T04:59:54.696Z,58.70
2018-11-12T05:02:23.557Z,58.80
2018-11-12T05:04:52.370Z,58.90
2018-11-12T05:07:21.184Z,58.70
2018-11-12T05:09:50.007Z,58.70
2018-11-12T05:12:17.854Z,58.50
2018-11-12T05:14:45.689Z,58.60
2018-11-12T05:17:14.355Z,58.40
2018-11-12T05:19:43.372Z,58.50
2018-11-12T05:22:11.201Z,58.50
2018-11-12T05:24:39.983Z,58.50
2018-11-12T05:27:08.805Z,58.30
2018-11-12T05:29:36.696Z,58.30
2018-11-12T05:32:05.592Z,58.40
2018-11-12T05:34:33.421Z,58.40
2018-11-12T05:37:02.257Z,58.60
2018-11-12T05:39:30.973Z,58.50
2018-11-12T05:41:59.815Z,58.30
2018-11-12T05:44:28.520Z,58.40
2018-11-12T05:46:56.346Z,58.40
2018-11-12T05:49:24.164Z,58.40
2018-11-12T05:51:52.022Z,58.40
2018-11-12T05:54:20.848Z,58.40
2018-11-12T05:56:49.553Z,58.40
2018-11-12T05:59:18.283Z,58.50
2018-11-12T06:01:46.108Z,58.50
2018-11-12T06:04:14.512Z,59.00
2018-11-12T06:06:43.307Z,58.40
2018-11-12T06:09:12.752Z,58.40
2018-11-12T06:11:41.579Z,58.40
2018-11-12T06:14:09.385Z,58.40
2018-11-12T06:16:37.177Z,58.30
2018-11-12T06:19:05.100Z,58.30
2018-11-12T06:21:32.920Z,58.50
2018-11-12T06:24:00.770Z,58.70
2018-11-12T06:26:28.580Z,58.50
2018-11-12T06:28:56.389Z,58.50
2018-11-12T06:31:24.282Z,58.60
2018-11-12T06:33:52.073Z,58.60
2018-11-12T06:36:19.899Z,58.40
2018-11-12T06:38:47.876Z,58.40
2018-11-12T06:41:15.693Z,58.40
2018-11-12T06:43:44.363Z,58.70
2018-11-12T06:46:12.188Z,58.60
2018-11-12T06:48:40.878Z,58.50
2018-11-12T06:51:08.696Z,58.40
2018-11-12T06:53:37.520Z,58.50
2018-11-12T06:56:06.267Z,58.40
2018-11-12T06:58:34.089Z,58.50
2018-11-12T07:01:01.984Z,58.70
2018-11-12T07:03:29.823Z,58.60
2018-11-12T07:05:57.667Z,58.40
2018-11-12T07:08:25.491Z,58.60
2018-11-12T07:10:53.305Z,58.40
2018-11-12T07:13:21.237Z,58.40
2018-11-12T07:15:49.074Z,58.30
2018-11-12T07:18:16.921Z,58.20
2018-11-12T07:20:45.412Z,58.00
2018-11-12T07:23:14.454Z,57.90
2018-11-12T07:25:43.668Z,58.10
2018-11-12T07:28:11.604Z,58.20
2018-11-12T07:30:39.553Z,58.20
2018-11-12T07:33:07.432Z,58.30
2018-11-12T07:35:35.258Z,58.10
2018-11-12T07:38:03.075Z,58.50
2018-11-12T07:40:30.892Z,58.10
2018-11-12T07:42:58.725Z,58.40
2018-11-12T07:45:28.036Z,58.30
2018-11-12T07:47:56.510Z,58.30
2018-11-12T07:50:25.773Z,59.00
2018-11-12T07:52:53.596Z,58.20
2018-11-12T07:55:22.692Z,58.20
2018-11-12T07:57:52.730Z,58.20
2018-11-12T08:00:26.903Z,58.50
2018-11-12T08:02:59.119Z,58.40
2018-11-12T08:05:26.920Z,58.30
2018-11-12T08:07:55.618Z,58.50
2018-11-12T08:10:24.352Z,58.50
2018-11-12T08:12:53.202Z,58.60
2018-11-12T08:15:21.922Z,58.60
2018-11-12T08:17:49.746Z,58.60
2018-11-12T08:20:18.898Z,58.90
2018-11-12T08:22:47.949Z,58.80
2018-11-12T08:25:16.782Z,58.70
2018-11-12T08:27:45.935Z,58.80
2018-11-12T08:30:18.952Z,58.90
2018-11-12T08:32:47.945Z,58.90
2018-11-12T08:35:17.169Z,58.90
2018-11-12T08:37:46.454Z,59.00
2018-11-12T08:40:16.554Z,59.10
2018-11-12T08:42:46.421Z,59.30
2018-11-12T08:45:16.917Z,59.10
2018-11-12T08:47:47.024Z,59.10
2018-11-12T08:50:17.291Z,59.10
2018-11-12T08:52:47.016Z,59.10
2018-11-12T08:55:20.084Z,59.20
2018-11-12T08:57:53.063Z,59.20
2018-11-12T09:00:22.787Z,59.30
2018-11-12T09:02:51.565Z,59.50
2018-11-12T09:05:21.385Z,59.40
2018-11-12T09:07:51.473Z,59.40
2018-11-12T09:10:21.251Z,59.40
2018-11-12T09:12:49.925Z,59.40
2018-11-12T09:15:17.736Z,59.40
2018-11-12T09:17:47.560Z,59.50
2018-11-12T09:20:19.523Z,59.70
2018-11-12T09:22:48.409Z,59.70
2018-11-12T09:25:18.667Z,59.50
2018-11-12T09:27:47.475Z,59.60
2018-11-12T09:30:22.813Z,59.70
2018-11-12T09:32:50.723Z,59.70
2018-11-12T09:35:21.775Z,59.80
2018-11-12T09:37:51.706Z,59.60
2018-11-12T09:40:23.261Z,59.50
2018-11-12T09:42:51.133Z,59.30
2018-11-12T09:45:19.815Z,59.30
2018-11-12T09:47:48.794Z,59.20
2018-11-12T09:50:18.998Z,59.20
2018-11-12T09:52:49.058Z,59.30
2018-11-12T09:55:18.560Z,59.30
2018-11-12T09:57:48.898Z,59.40
2018-11-12T10:00:17.977Z,59.50
2018-11-12T10:02:48.196Z,59.50
2018-11-12T10:05:17.227Z,59.70
2018-11-12T10:07:47.569Z,59.70
2018-11-12T10:10:24.720Z,59.70
2018-11-12T10:12:53.406Z,59.70
2018-11-12T10:15:22.190Z,59.70
2018-11-12T10:17:50.053Z,59.80
2018-11-12T10:20:16.480Z,59.80
2018-11-12T10:22:47.125Z,59.80
2018-11-12T10:25:16.046Z,60.00
2018-11-12T10:27:44.806Z,60.00
2018-11-12T10:30:13.452Z,59.90
2018-11-12T10:32:42.160Z,59.80
2018-11-12T10:35:11.214Z,59.90
2018-11-12T10:37:40.896Z,59.90
2018-11-12T10:40:11.175Z,59.90
2018-11-12T10:42:40.130Z,59.90
2018-11-12T10:45:08.365Z,59.90
2018-11-12T10:47:37.221Z,60.00
2018-11-12T10:50:06.228Z,59.90
2018-11-12T10:52:35.357Z,59.90
2018-11-12T10:55:05.367Z,59.90
2018-11-12T10:57:33.057Z,59.90
2018-11-12T11:00:01.823Z,60.00
2018-11-12T11:02:34.988Z,60.00
2018-11-12T11:05:03.745Z,60.10
2018-11-12T11:07:32.663Z,60.00
2018-11-12T11:10:01.534Z,60.10
2018-11-12T11:12:30.397Z,60.20
2018-11-12T11:14:59.168Z,60.10
2018-11-12T11:17:28.035Z,60.10
2018-11-12T11:19:56.891Z,60.10
2018-11-12T11:22:25.606Z,60.10
2018-11-12T11:24:54.310Z,60.10
2018-11-12T11:27:23.093Z,60.10
2018-11-12T11:29:51.054Z,60.10
2018-11-12T11:32:19.904Z,59.90
2018-11-12T11:34:48.745Z,60.30
2018-11-12T11:37:17.450Z,60.30
2018-11-12T11:39:46.685Z,60.20
2018-11-12T11:42:16.494Z,60.10
2018-11-12T11:44:44.979Z,60.20
2018-11-12T11:47:12.841Z,60.20
2018-11-12T11:49:40.662Z,60.20
2018-11-12T11:52:08.437Z,60.20
2018-11-12T11:54:36.260Z,60.30
2018-11-12T11:57:04.143Z,60.10
2018-11-12T11:59:31.970Z,60.10
2018-11-12T12:01:59.786Z,60.10
2018-11-12T12:04:27.600Z,60.10
2018-11-12T12:06:55.441Z,60.20
2018-11-12T12:09:23.280Z,60.10
2018-11-12T12:11:51.158Z,60.20
2018-11-12T12:14:18.994Z,60.20
2018-11-12T12:16:46.843Z,60.30
2018-11-12T12:19:15.352Z,60.10
2018-11-12T12:21:43.164Z,60.10
2018-11-12T12:24:10.985Z,60.20
2018-11-12T12:26:38.819Z,60.20
2018-11-12T12:29:06.685Z,60.30
2018-11-12T12:31:34.583Z,60.30
2018-11-12T12:34:02.402Z,60.30
2018-11-12T12:36:30.256Z,60.30
2018-11-12T12:38:58.089Z,60.40
2018-11-12T12:41:25.906Z,60.20
2018-11-12T12:43:53.740Z,60.10
2018-11-12T12:46:21.569Z,59.90
2018-11-12T12:48:49.395Z,59.70
2018-11-12T12:51:17.555Z,59.70
2018-11-12T12:53:45.661Z,59.70
2018-11-12T12:56:14.486Z,59.60
2018-11-12T12:58:42.416Z,59.60
2018-11-12T13:01:10.528Z,59.70
2018-11-12T13:03:38.364Z,59.80
2018-11-12T13:06:06.177Z,59.80
2018-11-12T13:08:34.920Z,59.80
2018-11-12T13:11:03.772Z,59.90
2018-11-12T13:13:32.487Z,60.00
2018-11-12T13:16:01.204Z,60.10
2018-11-12T13:18:29.022Z,60.00
2018-11-12T13:20:56.918Z,60.00
2018-11-12T13:23:25.626Z,60.00
2018-11-12T13:25:54.320Z,60.00
2018-11-12T13:28:22.184Z,60.00
2018-11-12T13:30:50.018Z,60.10
2018-11-12T13:33:17.841Z,60.30
2018-11-12T13:35:45.674Z,60.30
2018-11-12T13:38:15.237Z,61.00
2018-11-12T13:40:44.435Z,60.30
2018-11-12T13:43:12.214Z,60.20
2018-11-12T13:45:40.049Z,60.20
2018-11-12T13:48:07.889Z,60.30
2018-11-12T13:50:35.719Z,60.40
2018-11-12T13:53:04.086Z,60.50
2018-11-12T13:55:31.922Z,60.60
2018-11-12T13:57:59.792Z,60.50
2018-11-12T14:00:29.905Z,60.40
2018-11-12T14:02:57.974Z,60.40
2018-11-12T14:05:27.406Z,60.30
2018-11-12T14:07:55.226Z,60.40
2018-11-12T14:10:25.754Z,60.50
2018-11-12T14:12:54.570Z,60.50
2018-11-12T14:15:22.931Z,60.50
2018-11-12T14:17:51.181Z,60.60
2018-11-12T14:20:19.488Z,60.60
2018-11-12T14:22:47.196Z,60.50
2018-11-12T14:25:17.096Z,60.50
2018-11-12T14:27:46.829Z,60.50
2018-11-12T14:30:16.740Z,60.50
2018-11-12T14:32:45.677Z,60.30
2018-11-12T14:35:15.175Z,60.90
2018-11-12T14:37:45.133Z,60.50
2018-11-12T14:40:14.967Z,60.60
2018-11-12T14:42:44.822Z,60.60
2018-11-12T14:45:20.808Z,60.50
2018-11-12T14:47:48.975Z,60.50
2018-11-12T14:50:16.804Z,60.60
2018-11-12T14:52:45.763Z,60.70
2018-11-12T14:55:15.516Z,60.60
2018-11-12T14:57:44.378Z,60.70
2018-11-12T15:00:16.432Z,60.90
2018-11-12T15:02:45.069Z,60.90
2018-11-12T15:05:14.835Z,60.90
2018-11-12T15:07:44.751Z,60.80
2018-11-12T15:10:14.918Z,60.90
2018-11-12T15:12:45.189Z,60.90
2018-11-12T15:15:14.770Z,60.90
2018-11-12T15:17:44.600Z,61.60
2018-11-12T15:20:14.891Z,61.10
2018-11-12T15:22:44.321Z,61.90
2018-11-12T15:25:15.141Z,61.20
2018-11-12T15:27:45.153Z,61.20
2018-11-12T15:30:16.973Z,61.10
2018-11-12T15:32:46.788Z,61.20
2018-11-12T15:35:15.710Z,61.20
2018-11-12T15:37:45.332Z,61.30
2018-11-12T15:40:15.000Z,61.30
2018-11-12T15:42:43.884Z,61.40
2018-11-12T15:45:15.053Z,61.40
2018-11-12T15:47:45.068Z,61.30
2018-11-12T15:50:15.937Z,61.30
2018-11-12T15:52:45.801Z,61.30
2018-11-12T15:55:15.830Z,61.30
2018-11-12T15:57:45.039Z,61.30
2018-11-12T16:00:14.919Z,61.40
2018-11-12T16:02:44.897Z,61.50
2018-11-12T16:05:13.652Z,61.30
2018-11-12T16:07:42.607Z,61.00
2018-11-12T16:10:13.468Z,61.50
2018-11-12T16:12:41.632Z,60.80
2018-11-12T16:15:10.980Z,60.60
2018-11-12T16:17:39.105Z,60.60
2018-11-12T16:20:10.961Z,60.60
2018-11-12T16:22:38.855Z,60.60
2018-11-12T16:25:06.983Z,60.90
2018-11-12T16:27:34.917Z,60.90
2018-11-12T16:30:04.050Z,61.00
2018-11-12T16:32:31.961Z,60.90
2018-11-12T16:35:00.818Z,60.70
2018-11-12T16:37:29.556Z,60.70
2018-11-12T16:39:58.303Z,60.90
2018-11-12T16:42:26.189Z,60.90
2018-11-12T16:44:54.899Z,60.90
2018-11-12T16:47:23.637Z,61.00
2018-11-12T16:49:52.332Z,61.10
2018-11-12T16:52:21.079Z,61.10
2018-11-12T16:54:48.915Z,61.10
2018-11-12T16:57:17.620Z,61.00
2018-11-12T16:59:45.527Z,60.90
2018-11-12T17:02:14.431Z,60.90
2018-11-12T17:04:42.240Z,61.00
2018-11-12T17:07:10.059Z,60.90
2018-11-12T17:09:37.886Z,61.00
2018-11-12T17:12:05.772Z,61.10
2018-11-12T17:14:33.604Z,61.30
2018-11-12T17:17:01.449Z,61.10
2018-11-12T17:19:29.307Z,61.10
2018-11-12T17:21:57.125Z,61.10
2018-11-12T17:24:24.956Z,61.10
2018-11-12T17:26:52.832Z,61.00
2018-11-12T17:29:20.659Z,60.90
2018-11-12T17:31:48.502Z,60.80
2018-11-12T17:34:16.728Z,60.90
2018-11-12T17:36:45.097Z,61.00
2018-11-12T17:39:14.329Z,60.80
2018-11-12T17:41:42.176Z,60.50
2018-11-12T17:44:10.003Z,60.50
2018-11-12T17:46:37.825Z,60.60
2018-11-12T17:49:05.673Z,60.50
2018-11-12T17:51:33.502Z,60.60
2018-11-12T17:54:01.331Z,60.60
2018-11-12T17:56:29.157Z,60.70
2018-11-12T17:58:57.021Z,60.90
2018-11-12T18:01:26.203Z,60.60
2018-11-12T18:03:54.065Z,60.50
2018-11-12T18:06:21.893Z,60.50
2018-11-12T18:08:49.775Z,60.40
2018-11-12T18:11:17.608Z,60.50
2018-11-12T18:13:45.587Z,60.40
2018-11-12T18:16:14.050Z,60.50
2018-11-12T18:18:41.925Z,60.60
2018-11-12T18:21:09.750Z,60.40
2018-11-12T18:23:37.569Z,60.30
2018-11-12T18:26:05.402Z,60.20
2018-11-12T18:28:33.232Z,60.20
2018-11-12T18:31:01.154Z,60.20
2018-11-12T18:33:28.890Z,60.30
2018-11-12T18:35:57.794Z,60.30
2018-11-12T18:38:25.633Z,60.10
2018-11-12T18:40:53.463Z,59.90
2018-11-12T18:43:22.176Z,59.60
2018-11-12T18:45:50.111Z,59.60
2018-11-12T18:48:17.941Z,59.50
2018-11-12T18:50:45.769Z,59.70
2018-11-12T18:53:14.235Z,59.60
2018-11-12T18:55:42.062Z,59.60
2018-11-12T18:58:10.905Z,59.80
2018-11-12T19:00:39.641Z,59.80
2018-11-12T19:03:07.451Z,59.90
2018-11-12T19:05:36.315Z,60.00
2018-11-12T19:08:04.148Z,60.00
2018-11-12T19:10:33.678Z,60.00
2018-11-12T19:13:01.532Z,60.00
2018-11-12T19:15:34.230Z,60.10
2018-11-12T19:18:04.906Z,59.90
2018-11-12T19:20:32.745Z,59.90
2018-11-12T19:23:00.579Z,60.00
2018-11-12T19:25:28.405Z,60.10
2018-11-12T19:27:56.233Z,60.00
2018-11-12T19:30:25.467Z,60.00
2018-11-12T19:32:53.297Z,59.90
2018-11-12T19:35:22.587Z,60.00
2018-11-12T19:37:50.442Z,60.00
2018-11-12T19:40:19.544Z,59.90
2018-11-12T19:42:48.304Z,60.10
2018-11-12T19:45:16.265Z,60.00
2018-11-12T19:47:44.563Z,59.90
2018-11-12T19:50:14.934Z,59.90
2018-11-12T19:52:44.995Z,60.00
2018-11-12T19:55:14.852Z,59.90
2018-11-12T19:57:43.463Z,60.10
2018-11-12T20:00:13.247Z,60.10
2018-11-12T20:02:43.570Z,60.00
2018-11-12T20:05:12.433Z,60.00
2018-11-12T20:07:41.649Z,60.00
2018-11-12T20:10:11.057Z,60.00
2018-11-12T20:12:39.852Z,60.10
2018-11-12T20:15:08.749Z,60.10
2018-11-12T20:17:37.500Z,60.20
2018-11-12T20:20:08.670Z,60.30
2018-11-12T20:22:37.626Z,60.10
2018-11-12T20:25:06.935Z,60.10
2018-11-12T20:27:35.738Z,60.10
2018-11-12T20:30:03.577Z,60.10
2018-11-12T20:32:32.318Z,60.10
2018-11-12T20:35:00.194Z,60.10
2018-11-12T20:37:29.040Z,60.10
2018-11-12T20:39:57.810Z,60.20
2018-11-12T20:42:26.880Z,60.20
2018-11-12T20:44:55.606Z,60.50
2018-11-12T20:47:23.432Z,60.10
2018-11-12T20:49:52.153Z,60.10
2018-11-12T20:52:19.991Z,60.10
2018-11-12T20:54:48.829Z,60.10
2018-11-12T20:57:17.526Z,60.10
2018-11-12T20:59:45.831Z,60.00
2018-11-12T21:02:15.731Z,60.10
2018-11-12T21:04:45.267Z,60.00
2018-11-12T21:07:14.330Z,59.90
2018-11-12T21:09:43.245Z,59.90
2018-11-12T21:12:11.937Z,59.90
2018-11-12T21:14:39.774Z,59.90
2018-11-12T21:17:08.643Z,59.90
2018-11-12T21:19:37.614Z,59.90
2018-11-12T21:22:07.068Z,59.90
2018-11-12T21:24:35.041Z,60.10
2018-11-12T21:27:03.777Z,60.00
2018-11-12T21:29:31.608Z,59.90
2018-11-12T21:31:59.433Z,59.90
2018-11-12T21:34:29.700Z,60.10
2018-11-12T21:36:58.478Z,59.90
2018-11-12T21:39:27.222Z,59.90
2018-11-12T21:41:55.047Z,59.80
2018-11-12T21:44:22.943Z,59.80
2018-11-12T21:46:50.799Z,59.80
2018-11-12T21:49:19.536Z,60.00
2018-11-12T21:51:48.401Z,59.80
2018-11-12T21:54:16.252Z,59.70
2018-11-12T21:56:45.867Z,59.80
2018-11-12T21:59:15.660Z,59.90
2018-11-12T22:01:44.424Z,59.60
2018-11-12T22:04:12.333Z,59.50
2018-11-12T22:06:41.081Z,59.30
2018-11-12T22:09:09.461Z,59.20
2018-11-12T22:11:37.703Z,59.20
2018-11-12T22:14:05.894Z,59.80
2018-11-12T22:16:33.860Z,59.30
2018-11-12T22:19:01.694Z,59.30
2018-11-12T22:21:30.462Z,59.50
2018-11-12T22:23:58.327Z,59.50
2018-11-12T22:26:27.028Z,59.60
2018-11-12T22:28:54.867Z,59.70
2018-11-12T22:31:23.728Z,59.80
2018-11-12T22:33:52.467Z,59.70
2018-11-12T22:36:20.327Z,59.70
2018-11-12T22:38:48.170Z,59.60
2018-11-12T22:41:17.054Z,59.50
2018-11-12T22:43:45.986Z,59.60
2018-11-12T22:48:46.884Z,59.50
2018-11-12T22:51:15.373Z,59.60
2018-11-12T22:53:44.977Z,59.50
2018-11-12T22:56:12.800Z,59.50
2018-11-12T22:58:40.634Z,59.50
2018-11-12T23:01:08.464Z,59.50
2018-11-12T23:03:37.290Z,59.50
2018-11-12T23:06:11.932Z,60.10
2018-11-12T23:08:40.436Z,59.40
2018-11-12T23:11:09.342Z,59.40
2018-11-12T23:13:38.157Z,59.40
2018-11-12T23:16:07.031Z,59.50
2018-11-12T23:18:35.872Z,59.50
2018-11-12T23:21:04.625Z,59.70
2018-11-12T23:23:33.474Z,60.20
2018-11-12T23:26:02.232Z,59.50
2018-11-12T23:28:30.954Z,59.40
2018-11-12T23:30:59.678Z,59.50
2018-11-12T23:33:27.478Z,59.60
2018-11-12T23:35:55.313Z,59.60
2018-11-12T23:38:23.159Z,59.60
2018-11-12T23:40:50.991Z,59.70
2018-11-12T23:43:18.843Z,59.90
2018-11-12T23:45:46.681Z,59.70
2018-11-12T23:48:15.146Z,59.60
2018-11-12T23:50:44.229Z,59.50
2018-11-12T23:53:12.051Z,59.60
2018-11-12T23:55:39.919Z,59.60
2018-11-12T23:58:07.752Z,59.60
